sensor_id;sensor_type;location;lat;lon;timestamp;temperature;humidity
38592;DHT22;24356;48.460;11.450;2023-04-07T00:01:53;2.30;75.20
38592;DHT22;24356;48.460;11.450;2023-04-07T00:04:18;2.30;75.30
38592;DHT22;24356;48.460;11.450;2023-04-07T00:06:44;2.30;75.30
38592;DHT22;24356;48.460;11.450;2023-04-07T00:09:10;2.20;75.40
38592;DHT22;24356;48.460;11.450;2023-04-07T00:11:36;2.20;75.40
38592;DHT22;24356;48.460;11.450;2023-04-07T00:14:02;2.20;75.50
38592;DHT22;24356;48.460;11.450;2023-04-07T00:16:28;2.10;75.50
38592;DHT22;24356;48.460;11.450;2023-04-07T00:18:53;2.10;75.50
38592;DHT22;24356;48.460;11.450;2023-04-07T00:21:20;2.10;75.50
38592;DHT22;24356;48.460;11.450;2023-04-07T00:23:45;2.10;75.60
38592;DHT22;24356;48.460;11.450;2023-04-07T00:26:12;2.00;75.70
38592;DHT22;24356;48.460;11.450;2023-04-07T00:28:37;2.00;75.70
38592;DHT22;24356;48.460;11.450;2023-04-07T00:31:03;2.00;75.70
38592;DHT22;24356;48.460;11.450;2023-04-07T00:33:29;2.00;75.70
38592;DHT22;24356;48.460;11.450;2023-04-07T00:35:54;2.00;75.70
38592;DHT22;24356;48.460;11.450;2023-04-07T00:38:22;2.00;75.70
38592;DHT22;24356;48.460;11.450;2023-04-07T00:40:48;2.00;75.80
38592;DHT22;24356;48.460;11.450;2023-04-07T00:43:14;2.00;75.80
38592;DHT22;24356;48.460;11.450;2023-04-07T00:45:40;2.00;75.80
38592;DHT22;24356;48.460;11.450;2023-04-07T00:48:05;2.00;75.80
38592;DHT22;24356;48.460;11.450;2023-04-07T00:50:31;1.90;75.80
38592;DHT22;24356;48.460;11.450;2023-04-07T00:52:57;2.00;75.80
38592;DHT22;24356;48.460;11.450;2023-04-07T00:55:23;2.00;75.90
38592;DHT22;24356;48.460;11.450;2023-04-07T00:57:48;2.00;75.90
38592;DHT22;24356;48.460;11.450;2023-04-07T01:00:16;2.00;75.90
38592;DHT22;24356;48.460;11.450;2023-04-07T01:02:58;2.00;75.90
38592;DHT22;24356;48.460;11.450;2023-04-07T01:14:09;2.00;75.90
38592;DHT22;24356;48.460;11.450;2023-04-07T01:16:47;1.90;75.80
38592;DHT22;24356;48.460;11.450;2023-04-07T01:21:55;1.90;75.80
38592;DHT22;24356;48.460;11.450;2023-04-07T01:30:04;1.90;76.00
38592;DHT22;24356;48.460;11.450;2023-04-07T01:32:31;1.80;76.00
38592;DHT22;24356;48.460;11.450;2023-04-07T01:35:02;1.80;76.00
38592;DHT22;24356;48.460;11.450;2023-04-07T01:37:29;1.80;76.00
38592;DHT22;24356;48.460;11.450;2023-04-07T01:39:56;1.80;76.00
38592;DHT22;24356;48.460;11.450;2023-04-07T01:42:22;1.80;76.10
38592;DHT22;24356;48.460;11.450;2023-04-07T01:44:49;1.70;76.10
38592;DHT22;24356;48.460;11.450;2023-04-07T01:47:15;1.70;76.00
38592;DHT22;24356;48.460;11.450;2023-04-07T01:49:42;1.70;76.00
38592;DHT22;24356;48.460;11.450;2023-04-07T01:52:09;1.70;76.10
38592;DHT22;24356;48.460;11.450;2023-04-07T01:54:36;1.60;76.10
38592;DHT22;24356;48.460;11.450;2023-04-07T01:57:02;1.60;76.10
38592;DHT22;24356;48.460;11.450;2023-04-07T01:59:28;1.60;76.10
38592;DHT22;24356;48.460;11.450;2023-04-07T02:01:54;1.60;76.20
38592;DHT22;24356;48.460;11.450;2023-04-07T02:04:36;1.60;76.30
38592;DHT22;24356;48.460;11.450;2023-04-07T02:07:18;1.60;76.30
38592;DHT22;24356;48.460;11.450;2023-04-07T02:09:46;1.50;76.30
38592;DHT22;24356;48.460;11.450;2023-04-07T02:12:13;1.50;76.30
38592;DHT22;24356;48.460;11.450;2023-04-07T02:14:41;1.50;76.20
38592;DHT22;24356;48.460;11.450;2023-04-07T02:17:08;1.50;76.30
38592;DHT22;24356;48.460;11.450;2023-04-07T02:19:35;1.50;76.30
38592;DHT22;24356;48.460;11.450;2023-04-07T02:22:04;1.50;76.30
38592;DHT22;24356;48.460;11.450;2023-04-07T02:24:31;1.50;76.40
38592;DHT22;24356;48.460;11.450;2023-04-07T02:26:58;1.50;76.50
38592;DHT22;24356;48.460;11.450;2023-04-07T02:29:26;1.50;76.50
38592;DHT22;24356;48.460;11.450;2023-04-07T02:31:52;1.50;76.40
38592;DHT22;24356;48.460;11.450;2023-04-07T02:34:17;1.50;76.50
38592;DHT22;24356;48.460;11.450;2023-04-07T02:36:43;1.50;76.50
38592;DHT22;24356;48.460;11.450;2023-04-07T02:39:08;1.50;76.50
38592;DHT22;24356;48.460;11.450;2023-04-07T02:41:34;1.50;76.50
38592;DHT22;24356;48.460;11.450;2023-04-07T02:44:00;1.40;76.50
38592;DHT22;24356;48.460;11.450;2023-04-07T02:46:26;1.50;76.50
38592;DHT22;24356;48.460;11.450;2023-04-07T02:48:51;1.50;76.50
38592;DHT22;24356;48.460;11.450;2023-04-07T02:51:17;1.50;76.50
38592;DHT22;24356;48.460;11.450;2023-04-07T02:53:43;1.50;76.50
38592;DHT22;24356;48.460;11.450;2023-04-07T02:56:08;1.50;76.60
38592;DHT22;24356;48.460;11.450;2023-04-07T02:58:34;1.50;76.50
38592;DHT22;24356;48.460;11.450;2023-04-07T03:01:00;1.50;76.50
38592;DHT22;24356;48.460;11.450;2023-04-07T03:03:25;1.50;76.40
38592;DHT22;24356;48.460;11.450;2023-04-07T03:05:51;1.60;76.40
38592;DHT22;24356;48.460;11.450;2023-04-07T03:08:16;1.60;76.40
38592;DHT22;24356;48.460;11.450;2023-04-07T03:10:42;1.60;76.40
38592;DHT22;24356;48.460;11.450;2023-04-07T03:13:08;1.60;76.50
38592;DHT22;24356;48.460;11.450;2023-04-07T03:15:37;1.60;76.40
38592;DHT22;24356;48.460;11.450;2023-04-07T03:18:02;1.70;76.60
38592;DHT22;24356;48.460;11.450;2023-04-07T03:20:28;1.70;76.40
38592;DHT22;24356;48.460;11.450;2023-04-07T03:22:53;1.70;76.60
38592;DHT22;24356;48.460;11.450;2023-04-07T03:25:19;1.70;76.50
38592;DHT22;24356;48.460;11.450;2023-04-07T03:27:46;1.70;76.50
38592;DHT22;24356;48.460;11.450;2023-04-07T03:30:12;1.70;76.60
38592;DHT22;24356;48.460;11.450;2023-04-07T03:32:38;1.70;76.40
38592;DHT22;24356;48.460;11.450;2023-04-07T03:35:05;1.70;76.40
38592;DHT22;24356;48.460;11.450;2023-04-07T03:37:30;1.80;76.80
38592;DHT22;24356;48.460;11.450;2023-04-07T03:39:56;1.80;77.40
38592;DHT22;24356;48.460;11.450;2023-04-07T03:42:22;1.80;76.50
38592;DHT22;24356;48.460;11.450;2023-04-07T03:44:47;1.80;78.30
38592;DHT22;24356;48.460;11.450;2023-04-07T03:47:13;1.80;78.90
38592;DHT22;24356;48.460;11.450;2023-04-07T03:49:38;1.90;78.90
38592;DHT22;24356;48.460;11.450;2023-04-07T03:52:04;1.90;79.40
38592;DHT22;24356;48.460;11.450;2023-04-07T03:54:30;2.00;80.00
38592;DHT22;24356;48.460;11.450;2023-04-07T03:56:59;2.00;79.00
38592;DHT22;24356;48.460;11.450;2023-04-07T03:59:26;2.10;78.50
38592;DHT22;24356;48.460;11.450;2023-04-07T04:01:52;2.10;77.70
38592;DHT22;24356;48.460;11.450;2023-04-07T04:04:18;2.20;77.80
38592;DHT22;24356;48.460;11.450;2023-04-07T04:06:43;2.20;77.80
38592;DHT22;24356;48.460;11.450;2023-04-07T04:09:09;2.30;78.30
38592;DHT22;24356;48.460;11.450;2023-04-07T04:11:35;2.30;78.60
38592;DHT22;24356;48.460;11.450;2023-04-07T04:14:00;2.30;77.70
38592;DHT22;24356;48.460;11.450;2023-04-07T04:16:26;2.40;78.60
38592;DHT22;24356;48.460;11.450;2023-04-07T04:18:52;2.40;79.30
38592;DHT22;24356;48.460;11.450;2023-04-07T04:21:18;2.40;78.80
38592;DHT22;24356;48.460;11.450;2023-04-07T04:23:43;2.50;78.60
38592;DHT22;24356;48.460;11.450;2023-04-07T04:26:09;2.50;78.20
38592;DHT22;24356;48.460;11.450;2023-04-07T04:28:34;2.50;78.50
38592;DHT22;24356;48.460;11.450;2023-04-07T04:31:00;2.50;78.50
38592;DHT22;24356;48.460;11.450;2023-04-07T04:33:26;2.50;78.10
38592;DHT22;24356;48.460;11.450;2023-04-07T04:35:51;2.50;78.70
38592;DHT22;24356;48.460;11.450;2023-04-07T04:38:18;2.60;78.60
38592;DHT22;24356;48.460;11.450;2023-04-07T04:40:44;2.60;78.60
38592;DHT22;24356;48.460;11.450;2023-04-07T04:43:10;2.60;78.60
38592;DHT22;24356;48.460;11.450;2023-04-07T04:45:36;2.60;78.80
38592;DHT22;24356;48.460;11.450;2023-04-07T04:48:01;2.60;78.50
38592;DHT22;24356;48.460;11.450;2023-04-07T04:50:27;2.60;79.40
38592;DHT22;24356;48.460;11.450;2023-04-07T04:52:54;2.60;78.50
38592;DHT22;24356;48.460;11.450;2023-04-07T04:55:19;2.60;78.40
38592;DHT22;24356;48.460;11.450;2023-04-07T04:57:45;2.60;78.50
38592;DHT22;24356;48.460;11.450;2023-04-07T05:00:11;2.70;78.80
38592;DHT22;24356;48.460;11.450;2023-04-07T05:02:36;2.70;79.10
38592;DHT22;24356;48.460;11.450;2023-04-07T05:05:02;2.70;78.80
38592;DHT22;24356;48.460;11.450;2023-04-07T05:07:28;2.70;78.70
38592;DHT22;24356;48.460;11.450;2023-04-07T05:09:54;2.80;78.40
38592;DHT22;24356;48.460;11.450;2023-04-07T05:12:20;2.80;78.30
38592;DHT22;24356;48.460;11.450;2023-04-07T05:14:47;2.80;78.60
38592;DHT22;24356;48.460;11.450;2023-04-07T05:17:13;2.90;78.50
38592;DHT22;24356;48.460;11.450;2023-04-07T05:19:39;2.90;78.60
38592;DHT22;24356;48.460;11.450;2023-04-07T05:22:05;2.90;78.20
38592;DHT22;24356;48.460;11.450;2023-04-07T05:24:30;2.90;77.80
38592;DHT22;24356;48.460;11.450;2023-04-07T05:26:56;2.90;77.90
38592;DHT22;24356;48.460;11.450;2023-04-07T05:29:22;2.90;77.70
38592;DHT22;24356;48.460;11.450;2023-04-07T05:31:48;3.00;78.00
38592;DHT22;24356;48.460;11.450;2023-04-07T05:34:14;3.00;78.30
38592;DHT22;24356;48.460;11.450;2023-04-07T05:36:41;3.00;77.50
38592;DHT22;24356;48.460;11.450;2023-04-07T05:39:06;3.00;78.10
38592;DHT22;24356;48.460;11.450;2023-04-07T05:41:32;3.10;77.30
38592;DHT22;24356;48.460;11.450;2023-04-07T05:43:57;3.10;77.60
38592;DHT22;24356;48.460;11.450;2023-04-07T05:46:23;3.10;77.50
38592;DHT22;24356;48.460;11.450;2023-04-07T05:48:49;3.10;77.40
38592;DHT22;24356;48.460;11.450;2023-04-07T05:51:14;3.10;77.40
38592;DHT22;24356;48.460;11.450;2023-04-07T05:53:40;3.10;77.40
38592;DHT22;24356;48.460;11.450;2023-04-07T05:56:06;3.10;77.50
38592;DHT22;24356;48.460;11.450;2023-04-07T05:58:31;3.20;77.70
38592;DHT22;24356;48.460;11.450;2023-04-07T06:00:57;3.20;77.50
38592;DHT22;24356;48.460;11.450;2023-04-07T06:03:23;3.20;77.40
38592;DHT22;24356;48.460;11.450;2023-04-07T06:05:49;3.30;77.00
38592;DHT22;24356;48.460;11.450;2023-04-07T06:08:15;3.30;77.00
38592;DHT22;24356;48.460;11.450;2023-04-07T06:10:41;3.30;77.30
38592;DHT22;24356;48.460;11.450;2023-04-07T06:13:08;3.40;76.70
38592;DHT22;24356;48.460;11.450;2023-04-07T06:15:35;3.40;76.90
38592;DHT22;24356;48.460;11.450;2023-04-07T06:18:00;3.50;77.20
38592;DHT22;24356;48.460;11.450;2023-04-07T06:20:27;3.60;76.90
38592;DHT22;24356;48.460;11.450;2023-04-07T06:22:53;3.60;78.00
38592;DHT22;24356;48.460;11.450;2023-04-07T06:25:19;3.70;77.90
38592;DHT22;24356;48.460;11.450;2023-04-07T06:27:45;3.80;77.40
38592;DHT22;24356;48.460;11.450;2023-04-07T06:30:11;3.90;77.40
38592;DHT22;24356;48.460;11.450;2023-04-07T06:32:37;4.00;78.00
38592;DHT22;24356;48.460;11.450;2023-04-07T06:35:03;4.00;78.60
38592;DHT22;24356;48.460;11.450;2023-04-07T06:37:29;4.10;78.30
38592;DHT22;24356;48.460;11.450;2023-04-07T06:39:56;4.10;78.30
38592;DHT22;24356;48.460;11.450;2023-04-07T06:42:22;4.20;78.60
38592;DHT22;24356;48.460;11.450;2023-04-07T06:44:48;4.30;78.80
38592;DHT22;24356;48.460;11.450;2023-04-07T06:47:14;4.40;79.60
38592;DHT22;24356;48.460;11.450;2023-04-07T06:49:43;4.40;78.60
38592;DHT22;24356;48.460;11.450;2023-04-07T06:52:08;4.60;78.50
38592;DHT22;24356;48.460;11.450;2023-04-07T06:54:34;4.70;79.10
38592;DHT22;24356;48.460;11.450;2023-04-07T06:56:59;4.80;79.10
38592;DHT22;24356;48.460;11.450;2023-04-07T06:59:26;5.00;79.20
38592;DHT22;24356;48.460;11.450;2023-04-07T07:01:53;5.10;79.00
38592;DHT22;24356;48.460;11.450;2023-04-07T07:04:18;5.20;78.80
38592;DHT22;24356;48.460;11.450;2023-04-07T07:06:44;5.30;78.70
38592;DHT22;24356;48.460;11.450;2023-04-07T07:09:11;5.50;78.40
38592;DHT22;24356;48.460;11.450;2023-04-07T07:11:36;5.60;78.40
38592;DHT22;24356;48.460;11.450;2023-04-07T07:14:02;5.70;78.20
38592;DHT22;24356;48.460;11.450;2023-04-07T07:16:28;5.80;78.70
38592;DHT22;24356;48.460;11.450;2023-04-07T07:18:55;5.90;78.00
38592;DHT22;24356;48.460;11.450;2023-04-07T07:21:20;6.10;78.20
38592;DHT22;24356;48.460;11.450;2023-04-07T07:23:46;6.20;78.40
38592;DHT22;24356;48.460;11.450;2023-04-07T07:26:12;6.30;78.40
38592;DHT22;24356;48.460;11.450;2023-04-07T07:28:37;6.40;78.30
38592;DHT22;24356;48.460;11.450;2023-04-07T07:31:14;6.40;78.50
38592;DHT22;24356;48.460;11.450;2023-04-07T07:33:40;6.50;78.20
38592;DHT22;24356;48.460;11.450;2023-04-07T07:36:08;6.50;78.00
38592;DHT22;24356;48.460;11.450;2023-04-07T07:38:34;6.60;77.50
38592;DHT22;24356;48.460;11.450;2023-04-07T07:41:01;6.60;77.80
38592;DHT22;24356;48.460;11.450;2023-04-07T07:43:27;6.60;77.30
38592;DHT22;24356;48.460;11.450;2023-04-07T07:45:53;6.70;77.20
38592;DHT22;24356;48.460;11.450;2023-04-07T07:48:19;6.70;77.60
38592;DHT22;24356;48.460;11.450;2023-04-07T07:50:44;6.80;77.70
38592;DHT22;24356;48.460;11.450;2023-04-07T07:53:11;6.80;77.60
38592;DHT22;24356;48.460;11.450;2023-04-07T07:55:37;6.90;77.60
38592;DHT22;24356;48.460;11.450;2023-04-07T07:58:03;7.00;77.60
38592;DHT22;24356;48.460;11.450;2023-04-07T08:00:29;7.00;77.80
38592;DHT22;24356;48.460;11.450;2023-04-07T08:02:55;7.10;77.60
38592;DHT22;24356;48.460;11.450;2023-04-07T08:05:20;7.20;77.30
38592;DHT22;24356;48.460;11.450;2023-04-07T08:07:46;7.20;77.30
38592;DHT22;24356;48.460;11.450;2023-04-07T08:10:13;7.30;77.20
38592;DHT22;24356;48.460;11.450;2023-04-07T08:12:39;7.30;76.90
38592;DHT22;24356;48.460;11.450;2023-04-07T08:15:05;7.40;77.10
38592;DHT22;24356;48.460;11.450;2023-04-07T08:17:34;7.40;76.90
38592;DHT22;24356;48.460;11.450;2023-04-07T08:20:00;7.50;77.00
38592;DHT22;24356;48.460;11.450;2023-04-07T08:22:26;7.60;77.20
38592;DHT22;24356;48.460;11.450;2023-04-07T08:24:51;7.70;77.10
38592;DHT22;24356;48.460;11.450;2023-04-07T08:27:18;7.70;77.10
38592;DHT22;24356;48.460;11.450;2023-04-07T08:29:45;7.80;77.10
38592;DHT22;24356;48.460;11.450;2023-04-07T08:32:10;7.90;76.90
38592;DHT22;24356;48.460;11.450;2023-04-07T08:34:36;7.90;76.90
38592;DHT22;24356;48.460;11.450;2023-04-07T08:37:03;8.00;76.70
38592;DHT22;24356;48.460;11.450;2023-04-07T08:39:28;8.00;76.70
38592;DHT22;24356;48.460;11.450;2023-04-07T08:41:54;8.00;77.00
38592;DHT22;24356;48.460;11.450;2023-04-07T08:44:22;8.10;76.50
38592;DHT22;24356;48.460;11.450;2023-04-07T08:46:50;8.10;76.40
38592;DHT22;24356;48.460;11.450;2023-04-07T08:49:18;8.10;76.30
38592;DHT22;24356;48.460;11.450;2023-04-07T08:51:45;8.20;76.40
38592;DHT22;24356;48.460;11.450;2023-04-07T08:54:16;8.20;76.40
38592;DHT22;24356;48.460;11.450;2023-04-07T08:56:43;8.30;76.60
38592;DHT22;24356;48.460;11.450;2023-04-07T08:59:11;8.30;76.50
38592;DHT22;24356;48.460;11.450;2023-04-07T09:01:38;8.40;77.10
38592;DHT22;24356;48.460;11.450;2023-04-07T09:04:04;8.60;76.70
38592;DHT22;24356;48.460;11.450;2023-04-07T09:06:32;8.70;76.20
38592;DHT22;24356;48.460;11.450;2023-04-07T09:08:58;8.90;75.80
38592;DHT22;24356;48.460;11.450;2023-04-07T09:11:26;9.10;75.90
38592;DHT22;24356;48.460;11.450;2023-04-07T09:13:52;9.30;75.70
38592;DHT22;24356;48.460;11.450;2023-04-07T09:16:19;9.50;75.50
38592;DHT22;24356;48.460;11.450;2023-04-07T09:18:44;9.60;75.30
38592;DHT22;24356;48.460;11.450;2023-04-07T09:21:12;9.70;75.30
38592;DHT22;24356;48.460;11.450;2023-04-07T09:23:39;9.80;74.40
38592;DHT22;24356;48.460;11.450;2023-04-07T09:28:53;10.00;74.10
38592;DHT22;24356;48.460;11.450;2023-04-07T09:31:23;10.10;74.00
38592;DHT22;24356;48.460;11.450;2023-04-07T09:33:50;10.10;73.70
38592;DHT22;24356;48.460;11.450;2023-04-07T09:36:28;10.20;73.20
38592;DHT22;24356;48.460;11.450;2023-04-07T09:39:13;10.30;73.10
38592;DHT22;24356;48.460;11.450;2023-04-07T09:41:40;10.30;73.30
38592;DHT22;24356;48.460;11.450;2023-04-07T09:44:07;10.40;72.90
38592;DHT22;24356;48.460;11.450;2023-04-07T09:46:34;10.50;74.50
38592;DHT22;24356;48.460;11.450;2023-04-07T09:49:03;10.60;73.40
38592;DHT22;24356;48.460;11.450;2023-04-07T09:51:32;10.70;73.80
38592;DHT22;24356;48.460;11.450;2023-04-07T09:54:00;10.80;74.80
38592;DHT22;24356;48.460;11.450;2023-04-07T09:56:28;11.00;74.10
38592;DHT22;24356;48.460;11.450;2023-04-07T09:58:54;11.20;73.10
38592;DHT22;24356;48.460;11.450;2023-04-07T10:01:22;11.40;72.70
38592;DHT22;24356;48.460;11.450;2023-04-07T10:03:48;11.50;72.00
38592;DHT22;24356;48.460;11.450;2023-04-07T10:06:15;11.70;72.60
38592;DHT22;24356;48.460;11.450;2023-04-07T10:08:42;11.90;72.60
38592;DHT22;24356;48.460;11.450;2023-04-07T10:11:08;12.00;71.90
38592;DHT22;24356;48.460;11.450;2023-04-07T10:13:36;12.20;70.80
38592;DHT22;24356;48.460;11.450;2023-04-07T10:16:05;12.30;72.00
38592;DHT22;24356;48.460;11.450;2023-04-07T10:18:33;12.50;70.70
38592;DHT22;24356;48.460;11.450;2023-04-07T10:21:01;12.70;71.40
38592;DHT22;24356;48.460;11.450;2023-04-07T10:23:55;12.90;69.40
38592;DHT22;24356;48.460;11.450;2023-04-07T10:26:31;13.20;69.30
38592;DHT22;24356;48.460;11.450;2023-04-07T10:29:05;13.40;69.60
38592;DHT22;24356;48.460;11.450;2023-04-07T10:31:31;13.60;69.40
38592;DHT22;24356;48.460;11.450;2023-04-07T10:33:57;13.80;68.70
38592;DHT22;24356;48.460;11.450;2023-04-07T10:36:23;14.00;68.30
38592;DHT22;24356;48.460;11.450;2023-04-07T10:41:37;14.20;67.60
38592;DHT22;24356;48.460;11.450;2023-04-07T10:44:03;14.20;67.90
38592;DHT22;24356;48.460;11.450;2023-04-07T10:49:14;14.20;67.10
38592;DHT22;24356;48.460;11.450;2023-04-07T10:51:43;14.30;67.70
38592;DHT22;24356;48.460;11.450;2023-04-07T10:54:20;14.30;67.50
38592;DHT22;24356;48.460;11.450;2023-04-07T10:59:28;14.40;68.00
38592;DHT22;24356;48.460;11.450;2023-04-07T11:04:48;14.50;68.30
38592;DHT22;24356;48.460;11.450;2023-04-07T11:07:14;14.60;67.60
38592;DHT22;24356;48.460;11.450;2023-04-07T11:09:41;14.60;67.70
38592;DHT22;24356;48.460;11.450;2023-04-07T11:12:07;14.70;66.70
38592;DHT22;24356;48.460;11.450;2023-04-07T11:14:34;14.80;67.00
38592;DHT22;24356;48.460;11.450;2023-04-07T11:17:04;15.00;67.20
38592;DHT22;24356;48.460;11.450;2023-04-07T11:19:29;15.20;66.70
38592;DHT22;24356;48.460;11.450;2023-04-07T11:22:15;15.40;66.70
38592;DHT22;24356;48.460;11.450;2023-04-07T11:24:41;15.60;67.10
38592;DHT22;24356;48.460;11.450;2023-04-07T11:27:14;15.70;65.90
38592;DHT22;24356;48.460;11.450;2023-04-07T11:29:41;15.80;66.00
38592;DHT22;24356;48.460;11.450;2023-04-07T11:32:07;15.80;65.10
38592;DHT22;24356;48.460;11.450;2023-04-07T11:34:35;15.70;65.10
38592;DHT22;24356;48.460;11.450;2023-04-07T11:37:21;15.60;64.70
38592;DHT22;24356;48.460;11.450;2023-04-07T11:39:53;15.60;65.30
38592;DHT22;24356;48.460;11.450;2023-04-07T11:42:33;15.50;65.00
38592;DHT22;24356;48.460;11.450;2023-04-07T11:44:59;15.50;65.20
38592;DHT22;24356;48.460;11.450;2023-04-07T11:47:37;15.40;65.00
38592;DHT22;24356;48.460;11.450;2023-04-07T11:50:03;15.50;65.40
38592;DHT22;24356;48.460;11.450;2023-04-07T11:52:46;15.60;66.00
38592;DHT22;24356;48.460;11.450;2023-04-07T11:55:22;15.70;66.50
38592;DHT22;24356;48.460;11.450;2023-04-07T11:57:49;15.80;66.50
38592;DHT22;24356;48.460;11.450;2023-04-07T12:00:18;15.90;66.30
38592;DHT22;24356;48.460;11.450;2023-04-07T12:02:45;16.00;65.30
38592;DHT22;24356;48.460;11.450;2023-04-07T12:05:11;16.00;65.10
38592;DHT22;24356;48.460;11.450;2023-04-07T12:07:38;16.10;65.00
38592;DHT22;24356;48.460;11.450;2023-04-07T12:10:25;16.20;64.50
38592;DHT22;24356;48.460;11.450;2023-04-07T12:12:51;16.20;64.30
38592;DHT22;24356;48.460;11.450;2023-04-07T12:15:16;16.20;64.60
38592;DHT22;24356;48.460;11.450;2023-04-07T12:17:46;16.20;64.90
38592;DHT22;24356;48.460;11.450;2023-04-07T12:20:13;16.20;64.60
38592;DHT22;24356;48.460;11.450;2023-04-07T12:22:39;16.20;65.40
38592;DHT22;24356;48.460;11.450;2023-04-07T12:25:05;16.30;66.00
38592;DHT22;24356;48.460;11.450;2023-04-07T12:27:31;16.40;66.60
38592;DHT22;24356;48.460;11.450;2023-04-07T12:29:58;16.50;67.00
38592;DHT22;24356;48.460;11.450;2023-04-07T12:32:24;16.70;67.00
38592;DHT22;24356;48.460;11.450;2023-04-07T12:34:50;16.90;66.00
38592;DHT22;24356;48.460;11.450;2023-04-07T12:37:16;17.00;65.90
38592;DHT22;24356;48.460;11.450;2023-04-07T12:39:42;17.10;66.10
38592;DHT22;24356;48.460;11.450;2023-04-07T12:42:08;17.10;65.90
38592;DHT22;24356;48.460;11.450;2023-04-07T12:44:36;17.00;65.10
38592;DHT22;24356;48.460;11.450;2023-04-07T12:47:02;17.00;65.40
38592;DHT22;24356;48.460;11.450;2023-04-07T12:49:28;16.90;64.40
38592;DHT22;24356;48.460;11.450;2023-04-07T12:51:54;16.80;64.20
38592;DHT22;24356;48.460;11.450;2023-04-07T12:54:21;16.70;63.70
38592;DHT22;24356;48.460;11.450;2023-04-07T12:56:48;16.60;63.80
38592;DHT22;24356;48.460;11.450;2023-04-07T12:59:15;16.60;63.70
38592;DHT22;24356;48.460;11.450;2023-04-07T13:01:40;16.40;63.90
38592;DHT22;24356;48.460;11.450;2023-04-07T13:04:06;16.30;63.90
38592;DHT22;24356;48.460;11.450;2023-04-07T13:06:31;16.30;64.60
38592;DHT22;24356;48.460;11.450;2023-04-07T13:08:57;16.20;64.30
38592;DHT22;24356;48.460;11.450;2023-04-07T13:11:23;16.20;64.50
38592;DHT22;24356;48.460;11.450;2023-04-07T13:13:49;16.20;64.70
38592;DHT22;24356;48.460;11.450;2023-04-07T13:16:14;16.20;64.80
38592;DHT22;24356;48.460;11.450;2023-04-07T13:18:40;16.20;64.90
38592;DHT22;24356;48.460;11.450;2023-04-07T13:21:06;16.20;64.80
38592;DHT22;24356;48.460;11.450;2023-04-07T13:23:33;16.20;64.70
38592;DHT22;24356;48.460;11.450;2023-04-07T13:25:58;16.20;64.60
38592;DHT22;24356;48.460;11.450;2023-04-07T13:28:24;16.20;64.70
38592;DHT22;24356;48.460;11.450;2023-04-07T13:30:49;16.20;65.10
38592;DHT22;24356;48.460;11.450;2023-04-07T13:33:15;16.30;65.10
38592;DHT22;24356;48.460;11.450;2023-04-07T13:35:41;16.30;64.80
38592;DHT22;24356;48.460;11.450;2023-04-07T13:38:06;16.30;64.50
38592;DHT22;24356;48.460;11.450;2023-04-07T13:40:33;16.30;64.30
38592;DHT22;24356;48.460;11.450;2023-04-07T13:42:59;16.30;64.10
38592;DHT22;24356;48.460;11.450;2023-04-07T13:45:26;16.20;63.50
38592;DHT22;24356;48.460;11.450;2023-04-07T13:47:51;16.10;63.80
38592;DHT22;24356;48.460;11.450;2023-04-07T13:50:17;16.00;63.20
38592;DHT22;24356;48.460;11.450;2023-04-07T13:52:43;15.90;63.40
38592;DHT22;24356;48.460;11.450;2023-04-07T13:55:08;15.80;63.50
38592;DHT22;24356;48.460;11.450;2023-04-07T13:57:34;15.70;63.60
38592;DHT22;24356;48.460;11.450;2023-04-07T14:00:01;15.60;63.80
38592;DHT22;24356;48.460;11.450;2023-04-07T14:02:27;15.50;64.00
38592;DHT22;24356;48.460;11.450;2023-04-07T14:04:54;15.40;64.00
38592;DHT22;24356;48.460;11.450;2023-04-07T14:07:20;15.40;64.40
38592;DHT22;24356;48.460;11.450;2023-04-07T14:09:47;15.30;64.40
38592;DHT22;24356;48.460;11.450;2023-04-07T14:12:13;15.30;64.30
38592;DHT22;24356;48.460;11.450;2023-04-07T14:14:38;15.20;64.40
38592;DHT22;24356;48.460;11.450;2023-04-07T14:17:04;15.20;64.50
38592;DHT22;24356;48.460;11.450;2023-04-07T14:19:30;15.10;64.70
38592;DHT22;24356;48.460;11.450;2023-04-07T14:21:58;15.10;65.00
38592;DHT22;24356;48.460;11.450;2023-04-07T14:24:23;15.00;65.50
38592;DHT22;24356;48.460;11.450;2023-04-07T14:26:49;15.00;65.50
38592;DHT22;24356;48.460;11.450;2023-04-07T14:29:16;14.90;65.40
38592;DHT22;24356;48.460;11.450;2023-04-07T14:31:42;14.80;65.60
38592;DHT22;24356;48.460;11.450;2023-04-07T14:34:09;14.70;65.50
38592;DHT22;24356;48.460;11.450;2023-04-07T14:36:35;14.70;65.80
38592;DHT22;24356;48.460;11.450;2023-04-07T14:39:00;14.60;65.90
38592;DHT22;24356;48.460;11.450;2023-04-07T14:41:26;14.50;65.90
38592;DHT22;24356;48.460;11.450;2023-04-07T14:43:52;14.40;65.80
38592;DHT22;24356;48.460;11.450;2023-04-07T14:46:24;14.30;65.80
38592;DHT22;24356;48.460;11.450;2023-04-07T14:48:51;14.30;66.20
38592;DHT22;24356;48.460;11.450;2023-04-07T14:51:17;14.20;66.10
38592;DHT22;24356;48.460;11.450;2023-04-07T14:53:44;14.10;66.10
38592;DHT22;24356;48.460;11.450;2023-04-07T14:56:10;14.10;66.30
38592;DHT22;24356;48.460;11.450;2023-04-07T14:58:36;14.00;66.40
38592;DHT22;24356;48.460;11.450;2023-04-07T15:01:04;13.90;66.30
38592;DHT22;24356;48.460;11.450;2023-04-07T15:03:30;13.90;66.20
38592;DHT22;24356;48.460;11.450;2023-04-07T15:05:55;13.80;66.50
38592;DHT22;24356;48.460;11.450;2023-04-07T15:08:22;13.80;66.90
38592;DHT22;24356;48.460;11.450;2023-04-07T15:10:47;13.70;66.90
38592;DHT22;24356;48.460;11.450;2023-04-07T15:13:13;13.70;67.00
38592;DHT22;24356;48.460;11.450;2023-04-07T15:15:39;13.60;67.00
38592;DHT22;24356;48.460;11.450;2023-04-07T15:18:04;13.60;67.40
38592;DHT22;24356;48.460;11.450;2023-04-07T15:20:30;13.50;67.60
38592;DHT22;24356;48.460;11.450;2023-04-07T15:22:55;13.40;67.20
38592;DHT22;24356;48.460;11.450;2023-04-07T15:25:22;13.40;67.70
38592;DHT22;24356;48.460;11.450;2023-04-07T15:27:48;13.30;67.90
38592;DHT22;24356;48.460;11.450;2023-04-07T15:30:13;13.30;68.20
38592;DHT22;24356;48.460;11.450;2023-04-07T15:32:39;13.20;68.10
38592;DHT22;24356;48.460;11.450;2023-04-07T15:35:05;13.20;68.30
38592;DHT22;24356;48.460;11.450;2023-04-07T15:37:31;13.10;68.10
38592;DHT22;24356;48.460;11.450;2023-04-07T15:39:57;13.10;68.40
38592;DHT22;24356;48.460;11.450;2023-04-07T15:42:22;13.00;68.20
38592;DHT22;24356;48.460;11.450;2023-04-07T15:44:48;13.00;68.50
38592;DHT22;24356;48.460;11.450;2023-04-07T15:47:14;12.90;68.70
38592;DHT22;24356;48.460;11.450;2023-04-07T15:49:40;12.90;68.40
38592;DHT22;24356;48.460;11.450;2023-04-07T15:52:06;12.80;68.90
38592;DHT22;24356;48.460;11.450;2023-04-07T15:54:32;12.70;69.20